createdAt,value
2022-12-25T00:00:42.092Z,4.68
2022-12-25T00:03:09.785Z,5.50
2022-12-25T00:05:39.097Z,6.35
2022-12-25T00:08:06.850Z,10.63
2022-12-25T00:10:35.006Z,11.82
2022-12-25T00:13:04.221Z,5.72
2022-12-25T00:15:30.841Z,8.05
2022-12-25T00:17:57.461Z,7.50
2022-12-25T00:20:24.078Z,11.68
2022-12-25T00:22:50.660Z,10.20
2022-12-25T00:25:17.385Z,9.93
2022-12-25T00:27:43.992Z,10.98
2022-12-25T00:30:10.972Z,7.82
2022-12-25T00:32:37.804Z,8.15
2022-12-25T00:35:05.534Z,7.65
2022-12-25T00:37:32.155Z,7.03
2022-12-25T00:39:59.171Z,4.28
2022-12-25T00:42:27.026Z,8.57
2022-12-25T00:44:53.663Z,7.45
2022-12-25T00:47:20.382Z,8.63
2022-12-25T00:49:47.075Z,7.57
2022-12-25T00:52:13.787Z,6.28
2022-12-25T00:54:40.401Z,8.60
2022-12-25T00:57:06.975Z,7.00
2022-12-25T00:59:34.518Z,8.98
2022-12-25T01:02:22.058Z,7.32
2022-12-25T01:04:50.239Z,9.43
2022-12-25T01:07:17.552Z,5.25
2022-12-25T01:10:03.822Z,6.43
2022-12-25T01:12:32.242Z,9.10
2022-12-25T01:14:59.002Z,12.85
2022-12-25T01:17:25.722Z,12.00
2022-12-25T01:19:52.319Z,10.85
2022-12-25T01:22:19.082Z,5.35
2022-12-25T01:24:45.921Z,10.43
2022-12-25T01:27:12.749Z,12.45
2022-12-25T01:29:39.436Z,8.45
2022-12-25T01:32:06.779Z,7.00
2022-12-25T01:34:33.793Z,5.63
2022-12-25T01:37:00.463Z,8.55
2022-12-25T01:39:27.393Z,6.93
2022-12-25T01:41:54.085Z,5.93
2022-12-25T01:44:35.745Z,7.68
2022-12-25T01:47:06.740Z,8.90
2022-12-25T01:49:39.084Z,10.50
2022-12-25T01:54:43.453Z,7.43
2022-12-25T01:57:16.586Z,12.15
2022-12-25T01:59:43.815Z,6.80
2022-12-25T02:02:11.325Z,12.57
2022-12-25T02:04:45.839Z,16.13
2022-12-25T02:07:18.166Z,7.80
2022-12-25T02:09:45.909Z,8.73
2022-12-25T02:12:20.000Z,13.63
2022-12-25T02:14:49.505Z,7.00
2022-12-25T02:17:37.557Z,8.85
2022-12-25T02:20:23.054Z,12.05
2022-12-25T02:23:32.372Z,13.77
2022-12-25T02:26:05.038Z,10.27
2022-12-25T02:28:37.309Z,15.02
2022-12-25T02:31:15.045Z,12.25
2022-12-25T02:34:15.760Z,8.35
2022-12-25T02:37:02.600Z,12.73
2022-12-25T02:40:11.352Z,4.70
2022-12-25T02:43:16.939Z,8.88
2022-12-25T02:46:13.115Z,11.30
2022-12-25T02:49:09.361Z,9.75
2022-12-25T02:51:59.604Z,13.05
2022-12-25T02:54:53.330Z,10.18
2022-12-25T02:57:41.555Z,12.30
2022-12-25T03:00:28.880Z,10.55
2022-12-25T03:03:16.273Z,11.82
2022-12-25T03:06:03.142Z,8.27
2022-12-25T03:08:37.062Z,10.77
2022-12-25T03:11:25.516Z,13.05
2022-12-25T03:13:55.785Z,11.45
2022-12-25T03:16:54.999Z,9.35
2022-12-25T03:19:42.884Z,6.07
2022-12-25T03:22:54.102Z,14.20
2022-12-25T03:25:39.250Z,17.08
2022-12-25T03:28:06.501Z,13.65
2022-12-25T03:31:13.986Z,14.70
2022-12-25T03:34:17.553Z,14.25
2022-12-25T03:37:05.169Z,15.38
2022-12-25T03:39:55.022Z,12.02
2022-12-25T03:42:53.947Z,14.57
2022-12-25T03:45:45.172Z,21.50
2022-12-25T03:51:25.414Z,16.95
2022-12-25T03:54:16.303Z,13.23
2022-12-25T03:57:02.626Z,13.30
2022-12-25T03:59:47.473Z,20.63
2022-12-25T04:02:32.864Z,20.30
2022-12-25T04:05:18.099Z,17.95
2022-12-25T04:08:03.494Z,20.55
2022-12-25T04:10:49.036Z,19.20
2022-12-25T04:13:34.433Z,18.40
2022-12-25T04:16:19.649Z,21.63
2022-12-25T04:19:04.758Z,10.07
2022-12-25T04:21:49.812Z,20.48
2022-12-25T04:24:35.238Z,9.95
2022-12-25T04:27:20.433Z,21.40
2022-12-25T04:30:05.825Z,19.10
2022-12-25T04:32:50.975Z,15.07
2022-12-25T04:35:36.226Z,21.88
2022-12-25T04:38:02.834Z,12.80
2022-12-25T04:40:29.444Z,13.00
2022-12-25T04:42:56.054Z,17.08
2022-12-25T04:45:22.665Z,15.82
2022-12-25T04:47:49.339Z,13.00
2022-12-25T04:50:16.001Z,11.43
2022-12-25T04:52:43.133Z,16.35
2022-12-25T04:55:11.100Z,18.65
2022-12-25T04:57:38.121Z,15.25
2022-12-25T05:00:06.148Z,14.50
2022-12-25T05:02:33.149Z,15.85
2022-12-25T05:04:59.973Z,12.05
2022-12-25T05:07:26.571Z,16.00
2022-12-25T05:09:53.199Z,14.15
2022-12-25T05:12:19.882Z,16.95
2022-12-25T05:14:46.731Z,14.18
2022-12-25T05:17:13.499Z,13.77
2022-12-25T05:19:40.099Z,16.05
2022-12-25T05:22:06.724Z,17.27
2022-12-25T05:24:33.462Z,10.30
2022-12-25T05:27:00.151Z,19.38
2022-12-25T05:29:26.866Z,15.38
2022-12-25T05:31:53.440Z,11.95
2022-12-25T05:34:20.077Z,12.32
2022-12-25T05:36:46.656Z,12.05
2022-12-25T05:39:13.348Z,10.10
2022-12-25T05:41:40.684Z,15.52
2022-12-25T05:44:07.371Z,13.02
2022-12-25T05:46:34.061Z,9.68
2022-12-25T05:49:00.751Z,13.10
2022-12-25T05:51:27.386Z,12.77
2022-12-25T05:53:53.992Z,14.73
2022-12-25T05:56:20.685Z,16.20
2022-12-25T05:58:47.274Z,14.63
2022-12-25T06:01:16.745Z,10.80
2022-12-25T06:03:43.528Z,9.05
2022-12-25T06:06:10.880Z,11.32
2022-12-25T06:08:37.735Z,11.35
2022-12-25T06:11:06.427Z,13.85
2022-12-25T06:13:34.217Z,12.68
2022-12-25T06:16:04.883Z,11.52
2022-12-25T06:18:31.684Z,10.25
2022-12-25T06:20:58.323Z,7.90
2022-12-25T06:23:24.957Z,10.30
2022-12-25T06:25:51.718Z,12.00
2022-12-25T06:28:18.384Z,11.70
2022-12-25T06:30:46.199Z,12.50
2022-12-25T06:33:12.914Z,11.63
2022-12-25T06:35:40.315Z,11.35
2022-12-25T06:38:06.936Z,11.43
2022-12-25T06:40:35.015Z,12.25
2022-12-25T06:43:01.807Z,7.07
2022-12-25T06:45:28.494Z,10.43
2022-12-25T06:47:55.222Z,10.10
2022-12-25T06:50:21.845Z,12.48
2022-12-25T06:52:48.447Z,10.80
2022-12-25T06:55:15.156Z,10.40
2022-12-25T06:57:41.753Z,12.98
2022-12-25T07:00:10.694Z,15.02
2022-12-25T07:02:38.728Z,10.82
2022-12-25T07:05:06.004Z,9.18
2022-12-25T07:07:32.924Z,11.38
2022-12-25T07:09:59.686Z,10.48
2022-12-25T07:12:26.382Z,13.73
2022-12-25T07:14:55.409Z,12.25
2022-12-25T07:17:23.960Z,11.30
2022-12-25T07:19:50.795Z,8.50
2022-12-25T07:22:17.397Z,9.52
2022-12-25T07:24:44.346Z,11.77
2022-12-25T07:27:11.035Z,8.82
2022-12-25T07:29:37.675Z,11.85
2022-12-25T07:32:04.659Z,8.80
2022-12-25T07:34:31.345Z,11.45
2022-12-25T07:36:57.961Z,6.80
2022-12-25T07:39:24.614Z,12.27
2022-12-25T07:41:51.486Z,12.60
2022-12-25T07:44:18.378Z,11.25
2022-12-25T07:46:45.505Z,10.13
2022-12-25T07:49:12.665Z,9.30
2022-12-25T07:51:39.346Z,11.07
2022-12-25T07:54:06.058Z,12.00
2022-12-25T07:56:32.661Z,10.90
2022-12-25T07:58:59.315Z,9.98
2022-12-25T08:01:27.789Z,5.78
2022-12-25T08:03:57.113Z,9.55
2022-12-25T08:06:26.902Z,10.23
2022-12-25T08:08:53.617Z,10.20
2022-12-25T08:11:20.243Z,10.40
2022-12-25T08:13:46.883Z,7.80
2022-12-25T08:16:13.777Z,11.82
2022-12-25T08:18:40.448Z,8.60
2022-12-25T08:21:10.308Z,9.93
2022-12-25T08:23:39.478Z,11.48
2022-12-25T08:26:08.552Z,15.07
2022-12-25T08:28:36.089Z,9.27
2022-12-25T08:31:19.317Z,10.25
2022-12-25T08:33:46.721Z,11.40
2022-12-25T08:36:13.841Z,8.68
2022-12-25T08:38:41.276Z,9.57
2022-12-25T08:41:08.829Z,8.52
2022-12-25T08:43:35.969Z,10.00
2022-12-25T08:46:03.184Z,11.10
2022-12-25T08:48:30.093Z,12.88
2022-12-25T08:50:57.146Z,13.35
2022-12-25T08:53:24.187Z,10.90
2022-12-25T08:55:57.793Z,10.70
2022-12-25T08:58:24.553Z,9.60
2022-12-25T09:00:51.204Z,9.70
2022-12-25T09:03:17.848Z,11.60
2022-12-25T09:05:44.512Z,10.13
2022-12-25T09:08:11.077Z,9.48
2022-12-25T09:10:37.724Z,12.65
2022-12-25T09:13:05.275Z,10.05
2022-12-25T09:15:32.531Z,12.27
2022-12-25T09:17:59.230Z,11.43
2022-12-25T09:20:25.957Z,9.05
2022-12-25T09:22:52.588Z,12.80
2022-12-25T09:25:19.270Z,16.02
2022-12-25T09:27:45.998Z,10.10
2022-12-25T09:30:12.999Z,7.70
2022-12-25T09:32:40.412Z,10.38
2022-12-25T09:35:08.525Z,8.55
2022-12-25T09:37:35.721Z,8.43
2022-12-25T09:40:02.487Z,11.88
2022-12-25T09:42:37.115Z,11.52
2022-12-25T09:45:11.520Z,9.02
2022-12-25T09:47:41.118Z,15.93
2022-12-25T09:50:13.514Z,14.07
2022-12-25T09:52:49.509Z,14.18
2022-12-25T09:55:21.240Z,14.13
2022-12-25T09:58:08.838Z,14.18
2022-12-25T10:00:42.299Z,15.13
2022-12-25T10:03:12.101Z,13.68
2022-12-25T10:05:55.851Z,15.63
2022-12-25T10:08:47.897Z,12.32
2022-12-25T10:11:26.246Z,10.90
2022-12-25T10:14:08.069Z,11.77
2022-12-25T10:16:58.011Z,18.02
2022-12-25T10:19:43.183Z,20.33
2022-12-25T10:22:20.062Z,18.05
2022-12-25T10:24:52.979Z,18.23
2022-12-25T10:27:30.167Z,15.20
2022-12-25T10:29:56.872Z,18.85
2022-12-25T10:32:23.517Z,21.25
2022-12-25T10:34:50.776Z,19.63
2022-12-25T10:37:17.762Z,18.98
2022-12-25T10:39:46.809Z,20.30
2022-12-25T10:42:22.459Z,18.58
2022-12-25T10:45:04.290Z,19.20
2022-12-25T10:47:33.977Z,17.15
2022-12-25T10:50:07.826Z,19.33
2022-12-25T10:52:34.640Z,16.38
2022-12-25T10:55:11.525Z,22.60
2022-12-25T10:57:45.876Z,20.70
2022-12-25T11:00:23.567Z,22.65
2022-12-25T11:02:51.143Z,20.92
2022-12-25T11:05:32.997Z,22.70
2022-12-25T11:08:01.578Z,17.33
2022-12-25T11:10:32.575Z,12.43
2022-12-25T11:13:01.051Z,16.70
2022-12-25T11:16:10.849Z,13.77
2022-12-25T11:18:52.391Z,17.98
2022-12-25T11:21:29.158Z,15.63
2022-12-25T11:24:20.040Z,13.52
2022-12-25T11:26:55.877Z,14.93
2022-12-25T11:29:36.576Z,13.88
2022-12-25T11:32:05.281Z,13.35
2022-12-25T11:34:38.453Z,15.93
2022-12-25T11:37:12.526Z,14.45
2022-12-25T11:39:41.156Z,17.15
2022-12-25T11:42:13.588Z,14.32
2022-12-25T11:44:52.012Z,20.75
2022-12-25T11:47:21.862Z,13.52
2022-12-25T11:50:00.248Z,15.32
2022-12-25T11:52:33.927Z,16.73
2022-12-25T11:55:36.883Z,18.45
2022-12-25T11:58:14.203Z,20.33
2022-12-25T12:00:43.076Z,14.73
2022-12-25T12:03:19.220Z,18.10
2022-12-25T12:05:55.522Z,16.08
2022-12-25T12:08:22.177Z,22.38
2022-12-25T12:11:22.221Z,19.13
2022-12-25T12:13:57.511Z,18.27
2022-12-25T12:16:24.254Z,18.35
2022-12-25T12:18:51.067Z,20.65
2022-12-25T12:21:17.733Z,17.52
2022-12-25T12:24:06.146Z,18.23
2022-12-25T12:26:38.143Z,14.60
2022-12-25T12:29:07.144Z,18.45
2022-12-25T12:31:46.828Z,18.27
2022-12-25T12:34:32.585Z,14.20
2022-12-25T12:37:11.421Z,16.17
2022-12-25T12:39:40.237Z,17.83
2022-12-25T12:42:18.824Z,13.50
2022-12-25T12:47:29.469Z,13.70
2022-12-25T12:50:00.470Z,15.10
2022-12-25T12:52:32.927Z,18.88
2022-12-25T12:55:13.101Z,13.43
2022-12-25T12:57:40.654Z,18.23
2022-12-25T13:00:19.568Z,15.05
2022-12-25T13:03:40.495Z,17.35
2022-12-25T13:06:24.993Z,12.15
2022-12-25T13:09:13.355Z,12.68
2022-12-25T13:11:41.643Z,15.23
2022-12-25T13:14:17.214Z,15.18
2022-12-25T13:16:46.651Z,16.50
2022-12-25T13:19:21.975Z,19.45
2022-12-25T13:22:00.469Z,21.05
2022-12-25T13:24:30.119Z,15.75
2022-12-25T13:26:56.976Z,18.13
2022-12-25T13:29:30.989Z,14.15
2022-12-25T13:31:59.627Z,17.50
2022-12-25T13:34:42.078Z,16.65
2022-12-25T13:37:17.523Z,15.57
2022-12-25T13:40:06.473Z,19.60
2022-12-25T13:42:39.990Z,15.55
2022-12-25T13:45:28.069Z,18.05
2022-12-25T13:47:55.752Z,21.25
2022-12-25T13:50:31.926Z,12.93
2022-12-25T13:53:11.223Z,16.58
2022-12-25T13:55:38.216Z,15.52
2022-12-25T13:58:06.924Z,14.18
2022-12-25T14:00:38.050Z,14.48
2022-12-25T14:03:07.578Z,18.00
2022-12-25T14:05:42.856Z,13.30
2022-12-25T14:08:27.583Z,14.57
2022-12-25T14:10:55.614Z,15.45
2022-12-25T14:13:27.213Z,14.27
2022-12-25T14:15:56.607Z,11.73
2022-12-25T14:18:25.024Z,14.05
2022-12-25T14:21:15.376Z,14.13
2022-12-25T14:23:44.576Z,15.00
2022-12-25T14:26:40.789Z,14.43
2022-12-25T14:29:17.249Z,11.38
2022-12-25T14:31:47.036Z,13.88
2022-12-25T14:34:21.604Z,12.10
2022-12-25T14:36:48.802Z,15.43
2022-12-25T14:39:41.655Z,16.63
2022-12-25T14:42:20.326Z,12.48
2022-12-25T14:47:50.966Z,13.32
2022-12-25T14:50:38.726Z,13.20
2022-12-25T14:53:16.690Z,12.63
2022-12-25T14:55:48.321Z,16.95
2022-12-25T14:58:27.318Z,15.65
2022-12-25T15:00:57.034Z,13.98
2022-12-25T15:03:29.895Z,16.65
2022-12-25T15:06:02.125Z,15.07
2022-12-25T15:08:30.219Z,12.30
2022-12-25T15:11:01.043Z,12.20
2022-12-25T15:13:30.336Z,14.25
2022-12-25T15:16:12.642Z,11.80
2022-12-25T15:18:44.794Z,14.32
2022-12-25T15:21:26.491Z,12.35
2022-12-25T15:23:54.631Z,11.98
2022-12-25T15:26:21.783Z,12.40
2022-12-25T15:28:49.041Z,12.15
2022-12-25T15:31:31.055Z,10.90
2022-12-25T15:34:00.456Z,15.10
2022-12-25T15:36:27.606Z,13.48
2022-12-25T15:38:54.813Z,11.55
2022-12-25T15:41:50.277Z,12.88
2022-12-25T15:44:17.177Z,14.85
2022-12-25T15:46:44.152Z,13.00
2022-12-25T15:49:11.425Z,11.95
2022-12-25T15:51:38.611Z,11.13
2022-12-25T15:54:05.411Z,11.68
2022-12-25T15:56:45.594Z,12.55
2022-12-25T15:59:14.450Z,11.63
2022-12-25T16:01:44.769Z,9.20
2022-12-25T16:04:11.647Z,11.18
2022-12-25T16:06:38.619Z,17.40
2022-12-25T16:09:05.632Z,11.90
2022-12-25T16:11:32.349Z,11.93
2022-12-25T16:13:59.005Z,13.38
2022-12-25T16:16:25.915Z,11.40
2022-12-25T16:18:52.647Z,10.77
2022-12-25T16:21:21.121Z,11.85
2022-12-25T16:23:48.167Z,12.88
2022-12-25T16:26:14.876Z,15.27
2022-12-25T16:28:41.595Z,18.23
2022-12-25T16:31:08.339Z,18.63
2022-12-25T16:33:34.964Z,18.88
2022-12-25T16:36:01.607Z,16.63
2022-12-25T16:38:28.199Z,17.20
2022-12-25T16:40:57.431Z,17.65
2022-12-25T16:43:24.590Z,13.98
2022-12-25T16:45:51.588Z,17.83
2022-12-25T16:48:18.271Z,16.38
2022-12-25T16:50:45.227Z,24.92
2022-12-25T16:53:12.725Z,20.60
2022-12-25T16:55:39.379Z,23.65
2022-12-25T16:58:06.669Z,27.30
2022-12-25T17:00:33.387Z,22.80
2022-12-25T17:03:00.924Z,21.90
2022-12-25T17:05:27.848Z,15.90
2022-12-25T17:07:54.464Z,17.08
2022-12-25T17:10:21.443Z,23.55
2022-12-25T17:12:48.298Z,17.13
2022-12-25T17:15:14.992Z,19.05
2022-12-25T17:17:41.812Z,15.90
2022-12-25T17:20:08.816Z,16.48
2022-12-25T17:22:35.515Z,16.60
2022-12-25T17:25:02.313Z,14.52
2022-12-25T17:27:28.966Z,13.90
2022-12-25T17:29:55.642Z,16.33
2022-12-25T17:32:22.442Z,15.57
2022-12-25T17:34:49.070Z,14.75
2022-12-25T17:37:15.720Z,16.13
2022-12-25T17:39:42.360Z,16.63
2022-12-25T17:42:09.015Z,14.32
2022-12-25T17:44:35.667Z,13.65
2022-12-25T17:47:02.385Z,14.63
2022-12-25T17:49:29.133Z,15.15
2022-12-25T17:51:55.831Z,15.02
2022-12-25T17:54:22.448Z,13.00
2022-12-25T17:56:49.466Z,15.32
2022-12-25T17:59:18.816Z,16.58
2022-12-25T18:01:47.072Z,12.15
2022-12-25T18:04:13.950Z,14.90
2022-12-25T18:06:40.653Z,16.52
2022-12-25T18:09:07.351Z,14.48
2022-12-25T18:11:34.132Z,16.58
2022-12-25T18:14:05.640Z,15.48
2022-12-25T18:16:35.152Z,13.45
2022-12-25T18:19:02.511Z,13.57
2022-12-25T18:21:29.818Z,16.70
2022-12-25T18:23:56.745Z,14.88
2022-12-25T18:26:23.843Z,13.65
2022-12-25T18:28:50.697Z,11.68
2022-12-25T18:31:20.849Z,15.57
2022-12-25T18:33:48.436Z,14.18
2022-12-25T18:36:17.458Z,15.35
2022-12-25T18:38:44.082Z,15.23
2022-12-25T18:41:10.946Z,14.38
2022-12-25T18:43:53.959Z,13.68
2022-12-25T18:46:26.678Z,14.35
2022-12-25T18:48:55.634Z,14.15
2022-12-25T18:51:22.717Z,14.07
2022-12-25T18:53:49.372Z,15.70
2022-12-25T18:56:17.854Z,16.27
2022-12-25T18:58:46.180Z,14.93
2022-12-25T19:01:18.720Z,14.80
2022-12-25T19:03:46.263Z,15.70
2022-12-25T19:06:23.820Z,14.05
2022-12-25T19:08:51.221Z,16.25
2022-12-25T19:11:18.260Z,13.20
2022-12-25T19:13:45.683Z,13.60
2022-12-25T19:16:12.738Z,14.20
2022-12-25T19:18:43.060Z,13.75
2022-12-25T19:21:10.166Z,14.55
2022-12-25T19:23:38.066Z,12.77
2022-12-25T19:26:05.991Z,13.90
2022-12-25T19:28:32.709Z,13.15
2022-12-25T19:31:00.580Z,11.75
2022-12-25T19:33:27.780Z,12.80
2022-12-25T19:35:58.637Z,12.88
2022-12-25T19:38:25.250Z,12.10
2022-12-25T19:41:01.166Z,13.73
2022-12-25T19:43:33.066Z,13.68
2022-12-25T19:46:00.317Z,13.20
2022-12-25T19:48:27.673Z,13.82
2022-12-25T19:50:54.601Z,14.55
2022-12-25T19:53:23.768Z,13.52
2022-12-25T19:55:55.554Z,11.43
2022-12-25T19:58:23.679Z,11.52
2022-12-25T20:01:06.053Z,14.02
2022-12-25T20:03:38.824Z,12.48
2022-12-25T20:06:11.203Z,12.20
2022-12-25T20:08:37.815Z,11.88
2022-12-25T20:11:04.438Z,11.95
2022-12-25T20:13:31.118Z,10.90
2022-12-25T20:16:01.528Z,12.38
2022-12-25T20:18:29.074Z,12.25
2022-12-25T20:21:07.534Z,11.77
2022-12-25T20:23:34.171Z,10.20
2022-12-25T20:26:04.297Z,11.75
2022-12-25T20:28:32.620Z,10.68
2022-12-25T20:30:59.329Z,12.10
2022-12-25T20:33:25.915Z,10.40
2022-12-25T20:35:52.680Z,11.75
2022-12-25T20:38:19.288Z,10.48
2022-12-25T20:41:24.324Z,11.70
2022-12-25T20:43:32.932Z,12.00
2022-12-25T20:45:59.791Z,10.32
2022-12-25T20:48:26.524Z,13.88
2022-12-25T20:50:53.212Z,10.55
2022-12-25T20:53:20.485Z,10.57
2022-12-25T20:55:49.573Z,11.05
2022-12-25T20:58:17.330Z,11.77
2022-12-25T21:00:45.221Z,10.82
2022-12-25T21:03:12.221Z,10.02
2022-12-25T21:05:49.805Z,10.07
2022-12-25T21:08:22.411Z,11.63
2022-12-25T21:13:20.749Z,9.50
2022-12-25T21:15:48.959Z,11.60
2022-12-25T21:18:20.905Z,12.77
2022-12-25T21:20:51.466Z,11.75
2022-12-25T21:23:18.982Z,13.13
2022-12-25T21:25:47.035Z,13.73
2022-12-25T21:28:14.015Z,12.43
2022-12-25T21:30:40.820Z,12.35
2022-12-25T21:33:26.265Z,11.13
2022-12-25T21:35:52.930Z,12.02
2022-12-25T21:38:19.546Z,10.77
2022-12-25T21:40:46.150Z,12.45
2022-12-25T21:43:14.398Z,9.57
2022-12-25T21:45:41.141Z,12.77
2022-12-25T21:48:08.089Z,12.60
2022-12-25T21:50:53.587Z,10.07
2022-12-25T21:53:20.831Z,9.80
2022-12-25T21:56:01.381Z,11.05
2022-12-25T21:58:28.479Z,11.38
2022-12-25T22:00:55.455Z,9.18
2022-12-25T22:03:23.709Z,11.52
2022-12-25T22:06:09.237Z,10.38
2022-12-25T22:08:35.885Z,12.55
2022-12-25T22:11:04.070Z,10.85
2022-12-25T22:13:49.607Z,10.43
2022-12-25T22:16:34.827Z,11.00
2022-12-25T22:19:20.422Z,9.25
2022-12-25T22:21:47.000Z,9.18
2022-12-25T22:24:13.632Z,9.68
2022-12-25T22:26:40.259Z,9.82
2022-12-25T22:29:07.047Z,8.02
2022-12-25T22:31:33.718Z,8.82
2022-12-25T22:34:00.422Z,9.65
2022-12-25T22:36:27.054Z,10.32
2022-12-25T22:38:53.731Z,10.63
2022-12-25T22:41:20.339Z,9.25
2022-12-25T22:44:17.167Z,8.13
2022-12-25T22:46:33.553Z,11.27
2022-12-25T22:49:00.212Z,7.50
2022-12-25T22:51:26.784Z,8.55
2022-12-25T22:53:54.813Z,8.77
2022-12-25T22:56:24.143Z,8.85
2022-12-25T22:58:50.769Z,11.30
2022-12-25T23:01:17.409Z,7.95
2022-12-25T23:03:44.107Z,8.40
2022-12-25T23:06:10.971Z,8.70
2022-12-25T23:08:37.607Z,5.30
2022-12-25T23:11:05.197Z,8.20
2022-12-25T23:13:50.487Z,6.60
2022-12-25T23:16:17.770Z,8.15
2022-12-25T23:19:04.323Z,3.80
2022-12-25T23:21:49.791Z,8.43
2022-12-25T23:24:35.177Z,7.82
2022-12-25T23:27:02.031Z,8.32
2022-12-25T23:29:37.569Z,6.97
2022-12-25T23:32:13.220Z,7.45
2022-12-25T23:34:43.047Z,9.80
2022-12-25T23:37:10.353Z,7.32
2022-12-25T23:39:37.571Z,7.47
2022-12-25T23:42:04.441Z,7.72
2022-12-25T23:44:31.115Z,9.05
2022-12-25T23:46:58.207Z,6.53
2022-12-25T23:49:25.620Z,7.60
2022-12-25T23:51:52.839Z,6.50
2022-12-25T23:54:22.905Z,7.05
2022-12-25T23:56:49.753Z,7.72
2022-12-25T23:59:16.823Z,6.95
